Time;durP1;ratioP1;P1;durP2;ratioP2;P2;SDS_P1;SDS_P2;PMS_P1;PMS_P2;Temp;Humidity;BMP_temperature;BMP_pressure;BME280_temperature;BME280_humidity;BME280_pressure;Samples;Min_cycle;Max_cycle;Signal;HPM_P1;HPM_P2
2023/04/07 00:00:36;;;;;;;8.07;7.40;;;;;;;;;;5051184;28;20383;-79
2023/04/07 00:03:05;;;;;;;8.40;7.70;;;;;;;;;;5050471;28;20407;-79
2023/04/07 00:05:31;;;;;;;8.05;7.32;;;;;;;;;;5050697;28;20407;-79
2023/04/07 00:07:57;;;;;;;8.10;7.50;;;;;;;;;;5051192;28;20846;-80
2023/04/07 00:10:24;;;;;;;7.93;7.28;;;;;;;;;;5051110;28;20413;-79
2023/04/07 00:12:50;;;;;;;7.82;7.22;;;;;;;;;;5051040;28;20382;-80
2023/04/07 00:15:16;;;;;;;7.63;6.97;;;;;;;;;;5051025;28;20801;-79
2023/04/07 00:17:42;;;;;;;7.45;6.80;;;;;;;;;;5051156;28;20395;-79
2023/04/07 00:20:08;;;;;;;7.88;7.18;;;;;;;;;;5050994;28;20851;-80
2023/04/07 00:22:34;;;;;;;7.38;6.68;;;;;;;;;;5049553;28;20519;-80
2023/04/07 00:25:00;;;;;;;7.60;7.00;;;;;;;;;;5050651;28;20833;-79
2023/04/07 00:27:26;;;;;;;7.32;6.70;;;;;;;;;;5050525;28;20404;-80
2023/04/07 00:29:54;;;;;;;7.35;6.75;;;;;;;;;;5049455;28;20377;-80
2023/04/07 00:32:20;;;;;;;7.22;6.63;;;;;;;;;;5050410;28;20738;-79
2023/04/07 00:34:46;;;;;;;7.35;6.75;;;;;;;;;;5050825;28;20429;-79
2023/04/07 00:37:12;;;;;;;7.65;6.95;;;;;;;;;;5050166;28;20467;-79
2023/04/07 00:39:38;;;;;;;7.45;6.75;;;;;;;;;;5049650;28;20385;-80
2023/04/07 00:42:06;;;;;;;7.80;7.20;;;;;;;;;;5050023;28;20377;-81
2023/04/07 00:44:32;;;;;;;7.38;6.68;;;;;;;;;;5049290;28;20459;-80
2023/04/07 00:46:58;;;;;;;7.20;6.60;;;;;;;;;;5050704;28;20460;-80
2023/04/07 00:49:27;;;;;;;7.45;6.85;;;;;;;;;;5050594;28;20382;-80
2023/04/07 00:51:53;;;;;;;7.68;6.97;;;;;;;;;;5047604;28;20377;-80
2023/04/07 00:54:19;;;;;;;7.35;6.75;;;;;;;;;;5050416;28;20385;-81
2023/04/07 00:56:45;;;;;;;7.40;6.80;;;;;;;;;;5050641;28;20366;-81
2023/04/07 00:59:11;;;;;;;7.43;6.83;;;;;;;;;;5050468;28;20392;-81
2023/04/07 01:01:56;;;;;;;8.13;7.28;;;;;;;;;;5050851;28;20393;-80
2023/04/07 01:04:27;;;;;;;23.75;18.75;;;;;;;;;;5050554;28;20393;-82
2023/04/07 01:06:55;;;;;;;8.48;7.78;;;;;;;;;;5050658;28;20374;-81
2023/04/07 01:09:25;;;;;;;7.47;6.95;;;;;;;;;;5050413;28;20465;-80
2023/04/07 01:12:02;;;;;;;9.23;8.52;;;;;;;;;;5050205;28;20831;-80
2023/04/07 01:14:29;;;;;;;10.25;9.40;;;;;;;;;;5050326;28;20455;-80
2023/04/07 01:16:56;;;;;;;8.88;8.18;;;;;;;;;;5050387;28;20381;-79
2023/04/07 01:19:34;;;;;;;7.90;7.20;;;;;;;;;;5050287;28;20377;-79
2023/04/07 01:22:01;;;;;;;7.50;6.90;;;;;;;;;;5050410;28;20843;-79
2023/04/07 01:24:46;;;;;;;7.20;6.60;;;;;;;;;;5049909;28;20716;-80
2023/04/07 01:27:24;;;;;;;7.53;6.93;;;;;;;;;;5050203;28;20408;-80
2023/04/07 01:29:52;;;;;;;7.60;7.00;;;;;;;;;;5050308;28;20392;-80
2023/04/07 01:32:19;;;;;;;7.13;6.53;;;;;;;;;;5049280;28;20389;-79
2023/04/07 01:34:47;;;;;;;6.70;6.10;;;;;;;;;;5049102;28;20436;-80
2023/04/07 01:37:14;;;;;;;7.45;6.75;;;;;;;;;;5050582;28;20389;-79
2023/04/07 01:39:40;;;;;;;6.75;6.20;;;;;;;;;;5050504;28;20378;-80
2023/04/07 01:42:07;;;;;;;7.57;6.97;;;;;;;;;;5050549;28;20388;-80
2023/04/07 01:44:33;;;;;;;7.72;7.03;;;;;;;;;;5050399;28;20392;-80
2023/04/07 01:47:00;;;;;;;8.13;7.53;;;;;;;;;;5050533;28;20935;-80
2023/04/07 01:49:26;;;;;;;8.75;8.05;;;;;;;;;;5052870;28;20382;-80
2023/04/07 01:51:53;;;;;;;9.05;8.23;;;;;;;;;;5053986;28;20413;-80
2023/04/07 01:54:20;;;;;;;9.00;8.30;;;;;;;;;;5054003;28;20536;-80
2023/04/07 01:56:46;;;;;;;9.27;8.57;;;;;;;;;;5053992;28;20374;-79
2023/04/07 01:59:12;;;;;;;8.80;8.13;;;;;;;;;;5054084;28;20381;-79
2023/04/07 02:01:38;;;;;;;9.45;8.63;;;;;;;;;;5053883;28;20381;-79
2023/04/07 02:04:07;;;;;;;9.30;8.50;;;;;;;;;;5053554;28;20880;-79
2023/04/07 02:06:35;;;;;;;9.63;8.82;;;;;;;;;;5053584;28;20393;-80
2023/04/07 02:09:03;;;;;;;10.32;9.35;;;;;;;;;;5053788;28;20782;-80
2023/04/07 02:11:32;;;;;;;9.38;8.63;;;;;;;;;;5053934;28;20374;-79
2023/04/07 02:14:00;;;;;;;10.32;9.43;;;;;;;;;;5044962;28;20405;-79
2023/04/07 02:16:28;;;;;;;9.75;9.05;;;;;;;;;;5048681;28;20467;-79
2023/04/07 02:18:54;;;;;;;9.80;9.05;;;;;;;;;;5052381;28;20381;-79
2023/04/07 02:21:20;;;;;;;10.40;9.50;;;;;;;;;;5052433;28;20392;-80
2023/04/07 02:23:46;;;;;;;10.27;9.45;;;;;;;;;;5052687;28;20393;-80
2023/04/07 02:26:12;;;;;;;10.23;9.43;;;;;;;;;;5053260;28;20746;-79
2023/04/07 02:28:38;;;;;;;11.38;10.40;;;;;;;;;;5052305;28;20382;-80
2023/04/07 02:31:04;;;;;;;10.63;9.73;;;;;;;;;;5053034;28;20411;-79
2023/04/07 02:33:30;;;;;;;10.85;10.02;;;;;;;;;;5052892;28;20378;-79
2023/04/07 02:35:56;;;;;;;10.80;9.90;;;;;;;;;;5052931;28;20436;-79
2023/04/07 02:38:22;;;;;;;11.07;10.07;;;;;;;;;;5053302;28;20867;-80
2023/04/07 02:40:48;;;;;;;10.48;9.57;;;;;;;;;;5053255;28;20428;-79
2023/04/07 02:43:16;;;;;;;10.73;9.82;;;;;;;;;;5035600;28;20441;-79
2023/04/07 02:45:42;;;;;;;9.95;9.05;;;;;;;;;;5046205;28;20377;-80
2023/04/07 02:48:08;;;;;;;9.97;9.17;;;;;;;;;;5053165;28;20870;-79
2023/04/07 02:50:34;;;;;;;10.75;9.85;;;;;;;;;;5053091;28;20407;-80
2023/04/07 02:53:00;;;;;;;10.20;9.40;;;;;;;;;;5052870;28;20759;-79
2023/04/07 02:55:26;;;;;;;10.10;9.20;;;;;;;;;;5052543;28;20405;-80
2023/04/07 02:57:52;;;;;;;10.70;9.80;;;;;;;;;;5052983;28;20377;-80
2023/04/07 03:00:18;;;;;;;9.73;8.85;;;;;;;;;;5052359;28;20405;-80
2023/04/07 03:02:44;;;;;;;9.98;9.18;;;;;;;;;;5052855;28;20405;-79
2023/04/07 03:05:10;;;;;;;9.60;8.80;;;;;;;;;;5052839;28;20386;-79
2023/04/07 03:07:36;;;;;;;10.00;9.10;;;;;;;;;;5052781;28;20720;-79
2023/04/07 03:10:02;;;;;;;9.80;9.00;;;;;;;;;;5052792;28;20389;-80
2023/04/07 03:12:28;;;;;;;9.70;8.90;;;;;;;;;;5052563;28;20412;-80
2023/04/07 03:14:54;;;;;;;10.13;9.35;;;;;;;;;;5052607;28;20427;-79
2023/04/07 03:17:20;;;;;;;10.10;9.30;;;;;;;;;;5052591;28;20859;-80
2023/04/07 03:19:46;;;;;;;9.90;9.10;;;;;;;;;;5052640;28;20382;-79
2023/04/07 03:22:12;;;;;;;9.85;9.07;;;;;;;;;;5034410;28;20397;-79
2023/04/07 03:24:39;;;;;;;10.55;9.55;;;;;;;;;;5051575;28;20464;-79
2023/04/07 03:27:05;;;;;;;9.88;9.07;;;;;;;;;;5052167;28;20396;-79
2023/04/07 03:29:31;;;;;;;10.40;9.50;;;;;;;;;;5051955;28;20397;-79
2023/04/07 03:31:57;;;;;;;9.75;8.95;;;;;;;;;;5051974;28;20404;-79
2023/04/07 03:34:23;;;;;;;9.45;8.65;;;;;;;;;;5045583;28;20436;-80
2023/04/07 03:36:49;;;;;;;9.97;9.07;;;;;;;;;;5044799;28;20447;-79
2023/04/07 03:39:15;;;;;;;10.30;9.50;;;;;;;;;;5047720;28;20858;-80
2023/04/07 03:41:41;;;;;;;9.80;8.90;;;;;;;;;;5052040;28;20466;-80
2023/04/07 03:44:07;;;;;;;9.70;8.68;;;;;;;;;;5052084;28;20469;-79
2023/04/07 03:46:33;;;;;;;9.07;8.38;;;;;;;;;;5048993;28;20409;-79
2023/04/07 03:49:00;;;;;;;9.90;9.10;;;;;;;;;;5051877;28;20388;-79
2023/04/07 03:51:26;;;;;;;9.95;9.05;;;;;;;;;;5051918;28;20913;-79
2023/04/07 03:53:52;;;;;;;9.83;9.03;;;;;;;;;;5051543;28;20447;-79
2023/04/07 03:56:19;;;;;;;9.75;9.05;;;;;;;;;;5051847;28;20420;-79
2023/04/07 03:58:45;;;;;;;9.93;9.13;;;;;;;;;;5051884;28;20377;-80
2023/04/07 04:01:11;;;;;;;10.20;9.30;;;;;;;;;;5051344;28;20508;-80
2023/04/07 04:03:37;;;;;;;10.43;9.52;;;;;;;;;;5051666;28;20439;-79
2023/04/07 04:06:03;;;;;;;10.98;10.07;;;;;;;;;;5050612;28;20381;-79
2023/04/07 04:08:30;;;;;;;10.68;9.77;;;;;;;;;;5051443;28;20466;-79
2023/04/07 04:10:56;;;;;;;11.45;10.55;;;;;;;;;;5050976;28;20424;-79
2023/04/07 04:13:22;;;;;;;10.77;9.77;;;;;;;;;;5050145;28;20739;-80
2023/04/07 04:15:48;;;;;;;11.82;10.60;;;;;;;;;;5051272;28;20413;-82
2023/04/07 04:18:14;;;;;;;11.43;10.43;;;;;;;;;;5050545;28;20486;-80
2023/04/07 04:20:40;;;;;;;10.93;10.02;;;;;;;;;;5050284;28;20385;-81
2023/04/07 04:23:06;;;;;;;10.65;9.77;;;;;;;;;;5043849;28;20378;-81
2023/04/07 04:25:32;;;;;;;11.23;10.23;;;;;;;;;;5046444;28;20381;-79
2023/04/07 04:27:58;;;;;;;10.57;9.68;;;;;;;;;;5049962;28;20716;-80
2023/04/07 04:30:24;;;;;;;10.63;9.73;;;;;;;;;;5050855;28;20392;-79
2023/04/07 04:32:50;;;;;;;10.80;9.93;;;;;;;;;;5050300;28;20878;-79
2023/04/07 04:35:16;;;;;;;10.75;9.80;;;;;;;;;;5050873;28;20413;-80
2023/04/07 04:37:42;;;;;;;10.60;9.67;;;;;;;;;;5051083;28;20393;-80
2023/04/07 04:40:08;;;;;;;10.88;9.95;;;;;;;;;;5050581;28;20381;-79
2023/04/07 04:42:35;;;;;;;10.18;9.27;;;;;;;;;;5050996;28;20377;-80
2023/04/07 04:45:01;;;;;;;10.68;9.77;;;;;;;;;;5051022;28;20373;-79
2023/04/07 04:47:27;;;;;;;10.18;9.38;;;;;;;;;;5050999;28;20868;-79
2023/04/07 04:49:53;;;;;;;11.38;10.38;;;;;;;;;;5050845;28;20442;-79
2023/04/07 04:52:19;;;;;;;11.13;10.13;;;;;;;;;;5049346;28;20389;-79
2023/04/07 04:54:45;;;;;;;10.65;9.82;;;;;;;;;;5050811;28;20405;-79
2023/04/07 04:57:11;;;;;;;10.57;9.67;;;;;;;;;;5049303;28;20377;-79
2023/04/07 04:59:38;;;;;;;10.10;9.30;;;;;;;;;;5050857;28;20896;-79
2023/04/07 05:02:04;;;;;;;10.52;9.63;;;;;;;;;;5050579;28;20377;-80
2023/04/07 05:04:30;;;;;;;9.75;8.95;;;;;;;;;;5050378;28;20444;-80
2023/04/07 05:06:56;;;;;;;9.88;9.07;;;;;;;;;;5050576;28;20382;-80
2023/04/07 05:09:23;;;;;;;9.80;9.00;;;;;;;;;;5050097;28;20386;-80
2023/04/07 05:11:48;;;;;;;9.63;8.83;;;;;;;;;;5049107;28;20381;-79
2023/04/07 05:14:15;;;;;;;10.50;9.60;;;;;;;;;;5043433;28;20469;-81
2023/04/07 05:16:41;;;;;;;9.77;8.98;;;;;;;;;;5049126;28;20850;-80
2023/04/07 05:19:07;;;;;;;9.47;8.77;;;;;;;;;;5050116;28;20417;-80
2023/04/07 05:21:32;;;;;;;10.50;9.63;;;;;;;;;;5050277;28;20408;-79
2023/04/07 05:23:58;;;;;;;9.85;9.00;;;;;;;;;;5052138;28;20389;-79
2023/04/07 05:26:24;;;;;;;10.32;9.43;;;;;;;;;;5054624;28;20992;-79
2023/04/07 05:28:50;;;;;;;11.07;10.07;;;;;;;;;;5053936;28;20381;-78
2023/04/07 05:31:16;;;;;;;10.52;9.63;;;;;;;;;;5053992;28;20468;-79
2023/04/07 05:33:42;;;;;;;10.38;9.50;;;;;;;;;;5053424;28;20874;-79
2023/04/07 05:36:08;;;;;;;10.57;9.68;;;;;;;;;;5054231;28;20417;-79
2023/04/07 05:38:34;;;;;;;9.32;8.63;;;;;;;;;;5052749;28;20944;-79
2023/04/07 05:41:00;;;;;;;9.75;8.95;;;;;;;;;;5054466;28;20377;-79
2023/04/07 05:43:26;;;;;;;10.00;9.20;;;;;;;;;;5054239;28;20724;-79
2023/04/07 05:45:52;;;;;;;10.38;9.57;;;;;;;;;;5054067;28;20444;-78
2023/04/07 05:48:18;;;;;;;10.20;9.40;;;;;;;;;;5055338;28;20867;-79
2023/04/07 05:50:44;;;;;;;9.60;8.80;;;;;;;;;;5053963;28;20384;-78
2023/04/07 05:53:10;;;;;;;10.23;9.35;;;;;;;;;;5053674;28;20405;-77
2023/04/07 05:55:36;;;;;;;9.65;8.80;;;;;;;;;;5053275;28;20420;-79
2023/04/07 05:58:03;;;;;;;9.77;8.98;;;;;;;;;;5054162;28;20442;-79
2023/04/07 06:00:29;;;;;;;9.60;8.80;;;;;;;;;;5054002;28;20392;-79
2023/04/07 06:02:55;;;;;;;9.80;8.90;;;;;;;;;;5053631;28;20380;-79
2023/04/07 06:05:21;;;;;;;10.52;9.43;;;;;;;;;;5053526;28;20790;-78
2023/04/07 06:07:47;;;;;;;10.13;9.20;;;;;;;;;;5053876;28;20492;-79
2023/04/07 06:10:13;;;;;;;9.82;9.13;;;;;;;;;;5053901;28;20381;-78
2023/04/07 06:12:39;;;;;;;9.32;8.60;;;;;;;;;;5051228;28;20389;-79
2023/04/07 06:15:05;;;;;;;9.20;8.50;;;;;;;;;;5053687;28;20397;-78
2023/04/07 06:17:31;;;;;;;9.48;8.68;;;;;;;;;;5053818;28;20955;-79
2023/04/07 06:19:57;;;;;;;9.77;8.98;;;;;;;;;;5053611;28;20469;-78
2023/04/07 06:22:23;;;;;;;8.90;8.20;;;;;;;;;;5052973;28;20378;-79
2023/04/07 06:24:49;;;;;;;8.73;8.02;;;;;;;;;;5053140;28;20464;-80
2023/04/07 06:27:17;;;;;;;8.35;7.75;;;;;;;;;;5053505;28;20378;-78
2023/04/07 06:29:43;;;;;;;8.27;7.57;;;;;;;;;;5051317;28;20382;-78
2023/04/07 06:32:09;;;;;;;8.80;8.10;;;;;;;;;;5052695;28;20443;-77
2023/04/07 06:34:35;;;;;;;9.07;8.38;;;;;;;;;;5050568;28;20377;-78
2023/04/07 06:37:01;;;;;;;8.93;8.23;;;;;;;;;;5052174;28;20389;-78
2023/04/07 06:39:28;;;;;;;9.07;8.37;;;;;;;;;;5053088;28;20459;-78
2023/04/07 06:41:55;;;;;;;8.52;7.93;;;;;;;;;;5052856;28;20396;-79
2023/04/07 06:44:21;;;;;;;8.50;7.90;;;;;;;;;;5053212;28;20382;-78
2023/04/07 06:46:51;;;;;;;8.68;7.97;;;;;;;;;;5052163;28;20397;-77
2023/04/07 06:49:17;;;;;;;8.83;8.13;;;;;;;;;;5052891;28;20385;-78
2023/04/07 06:51:43;;;;;;;8.75;7.95;;;;;;;;;;5053008;28;20377;-78
2023/04/07 06:54:12;;;;;;;8.65;7.95;;;;;;;;;;5052777;28;20815;-78
2023/04/07 06:56:39;;;;;;;8.70;8.00;;;;;;;;;;5052659;28;20418;-78
2023/04/07 06:59:05;;;;;;;8.57;7.80;;;;;;;;;;5052899;28;20386;-77
2023/04/07 07:01:31;;;;;;;8.77;8.07;;;;;;;;;;5052658;28;20373;-80
2023/04/07 07:03:57;;;;;;;10.43;9.40;;;;;;;;;;5052857;28;20758;-81
2023/04/07 07:06:23;;;;;;;8.10;7.50;;;;;;;;;;5052778;28;20385;-81
2023/04/07 07:08:49;;;;;;;8.73;8.02;;;;;;;;;;5052750;28;20395;-80
2023/04/07 07:11:15;;;;;;;8.43;7.72;;;;;;;;;;5052653;28;20439;-84
2023/04/07 07:13:41;;;;;;;8.15;7.45;;;;;;;;;;5046562;28;20429;-80
2023/04/07 07:16:07;;;;;;;9.30;8.57;;;;;;;;;;5049090;28;20401;-80
2023/04/07 07:18:33;;;;;;;8.18;7.47;;;;;;;;;;5052124;28;20413;-80
2023/04/07 07:20:59;;;;;;;8.73;8.02;;;;;;;;;;5052443;28;20370;-80
2023/04/07 07:23:25;;;;;;;7.90;7.30;;;;;;;;;;5052427;28;20427;-81
2023/04/07 07:25:51;;;;;;;8.07;7.40;;;;;;;;;;5050919;28;20389;-81
2023/04/07 07:28:17;;;;;;;8.00;7.40;;;;;;;;;;5052306;28;20393;-80
2023/04/07 07:30:43;;;;;;;7.68;7.07;;;;;;;;;;5051450;28;20742;-80
2023/04/07 07:33:09;;;;;;;7.72;7.13;;;;;;;;;;5051945;28;20473;-81
2023/04/07 07:35:36;;;;;;;7.25;6.68;;;;;;;;;;5051847;28;20401;-80
2023/04/07 07:38:02;;;;;;;8.15;7.45;;;;;;;;;;5051963;28;20858;-80
2023/04/07 07:40:28;;;;;;;6.90;6.38;;;;;;;;;;5051768;28;20524;-80
2023/04/07 07:42:54;;;;;;;7.68;7.07;;;;;;;;;;5051920;28;20408;-80
2023/04/07 07:45:20;;;;;;;7.30;6.70;;;;;;;;;;5052116;28;20412;-80
2023/04/07 07:47:46;;;;;;;7.65;6.95;;;;;;;;;;5051957;28;20456;-80
2023/04/07 07:50:12;;;;;;;7.00;6.40;;;;;;;;;;5051829;28;20390;-80
2023/04/07 07:52:38;;;;;;;7.78;7.05;;;;;;;;;;5051788;28;20416;-80
2023/04/07 07:55:05;;;;;;;7.20;6.70;;;;;;;;;;5051806;28;20401;-80
2023/04/07 07:57:31;;;;;;;7.30;6.70;;;;;;;;;;5051577;28;20389;-80
2023/04/07 07:59:57;;;;;;;7.47;6.88;;;;;;;;;;5051549;28;20381;-80
2023/04/07 08:02:29;;;;;;;7.53;6.90;;;;;;;;;;5051564;28;20742;-80
2023/04/07 08:04:55;;;;;;;7.13;6.55;;;;;;;;;;5052072;28;20370;-80
2023/04/07 08:07:21;;;;;;;7.20;6.60;;;;;;;;;;5051775;28;20387;-80
2023/04/07 08:09:47;;;;;;;7.27;6.67;;;;;;;;;;5051664;28;20377;-80
2023/04/07 08:12:13;;;;;;;7.35;6.72;;;;;;;;;;5051637;28;20377;-80
2023/04/07 08:14:39;;;;;;;6.70;6.20;;;;;;;;;;5051393;28;20377;-80
2023/04/07 08:17:05;;;;;;;6.50;6.00;;;;;;;;;;5051576;28;20374;-80
2023/04/07 08:19:31;;;;;;;6.53;6.03;;;;;;;;;;5051461;28;20377;-81
2023/04/07 08:21:57;;;;;;;6.43;5.93;;;;;;;;;;5051052;28;20381;-80
2023/04/07 08:24:23;;;;;;;6.68;6.18;;;;;;;;;;5050993;28;20377;-80
2023/04/07 08:26:49;;;;;;;9.05;8.30;;;;;;;;;;5051270;28;20374;-80
2023/04/07 08:29:15;;;;;;;6.97;6.27;;;;;;;;;;5051468;28;20455;-80
2023/04/07 08:31:41;;;;;;;5.82;5.43;;;;;;;;;;5049959;28;20478;-80
2023/04/07 08:34:07;;;;;;;5.97;5.47;;;;;;;;;;5051029;28;20532;-80
2023/04/07 08:36:33;;;;;;;5.82;5.43;;;;;;;;;;5050734;28;20416;-80
2023/04/07 08:39:01;;;;;;;5.97;5.47;;;;;;;;;;5051010;28;20378;-80
2023/04/07 08:41:30;;;;;;;5.85;5.35;;;;;;;;;;5050899;28;20801;-80
2023/04/07 08:43:57;;;;;;;5.95;5.38;;;;;;;;;;5051133;28;20376;-80
2023/04/07 08:46:25;;;;;;;5.80;5.30;;;;;;;;;;5051171;28;20385;-80
2023/04/07 08:48:51;;;;;;;29.80;17.17;;;;;;;;;;5051086;28;20805;-80
2023/04/07 08:51:23;;;;;;;35.88;23.92;;;;;;;;;;5033222;28;20886;-81
2023/04/07 08:53:49;;;;;;;6.22;5.72;;;;;;;;;;5050832;28;20887;-80
2023/04/07 08:56:16;;;;;;;5.35;4.95;;;;;;;;;;5050914;28;20409;-80
2023/04/07 08:58:42;;;;;;;5.95;5.47;;;;;;;;;;5050475;28;20891;-80
2023/04/07 09:01:08;;;;;;;5.45;5.05;;;;;;;;;;5050966;28;20378;-80
2023/04/07 09:03:34;;;;;;;5.65;5.10;;;;;;;;;;5050963;28;20373;-80
2023/04/07 09:06:01;;;;;;;5.83;5.33;;;;;;;;;;5050818;28;20435;-82
2023/04/07 09:08:27;;;;;;;6.65;6.03;;;;;;;;;;5050979;28;20386;-82
2023/04/07 09:10:53;;;;;;;8.45;7.65;;;;;;;;;;5050447;28;20735;-82
2023/04/07 09:13:20;;;;;;;6.50;6.00;;;;;;;;;;5050850;28;20389;-82
2023/04/07 09:18:15;;;;;;;7.00;6.37;;;;;;;;;;5086928;28;20410;-85
2023/04/07 09:21:01;;;;;;;7.18;6.57;;;;;;;;;;5094463;28;20378;-85
2023/04/07 09:23:37;;;;;;;6.72;6.15;;;;;;;;;;5090990;28;20366;-85
2023/04/07 09:26:21;;;;;;;8.00;7.30;;;;;;;;;;5083782;28;20401;-86
2023/04/07 09:28:53;;;;;;;7.07;6.38;;;;;;;;;;5070727;28;20433;-86
2023/04/07 09:31:22;;;;;;;7.43;6.82;;;;;;;;;;5084872;28;20374;-86
2023/04/07 09:33:49;;;;;;;7.57;6.88;;;;;;;;;;5077629;28;20408;-86
2023/04/07 09:36:15;;;;;;;7.10;6.50;;;;;;;;;;5072455;28;20408;-86
2023/04/07 09:38:43;;;;;;;7.25;6.65;;;;;;;;;;5069067;28;20396;-86
2023/04/07 09:41:09;;;;;;;7.28;6.68;;;;;;;;;;5068719;28;20439;-86
2023/04/07 09:43:40;;;;;;;8.05;7.32;;;;;;;;;;5068890;28;20376;-85
2023/04/07 09:46:10;;;;;;;7.63;6.95;;;;;;;;;;5070307;28;20856;-85
2023/04/07 09:48:36;;;;;;;7.53;6.93;;;;;;;;;;5070354;28;20384;-86
2023/04/07 09:51:21;;;;;;;6.82;6.32;;;;;;;;;;5079984;28;20389;-86
2023/04/07 09:53:48;;;;;;;8.20;7.50;;;;;;;;;;5072608;28;20376;-85
2023/04/07 09:56:15;;;;;;;7.65;6.95;;;;;;;;;;5067323;28;20399;-85
2023/04/07 09:58:42;;;;;;;6.53;6.03;;;;;;;;;;5069354;28;20612;-85
2023/04/07 10:01:09;;;;;;;6.85;6.35;;;;;;;;;;5069189;28;20398;-85
2023/04/07 10:03:35;;;;;;;7.20;6.60;;;;;;;;;;5082297;28;20372;-85
2023/04/07 10:06:02;;;;;;;6.40;5.90;;;;;;;;;;5071556;28;20500;-85
2023/04/07 10:08:32;;;;;;;5.70;5.20;;;;;;;;;;5081898;28;20390;-85
2023/04/07 10:10:58;;;;;;;5.85;5.35;;;;;;;;;;5071490;28;20494;-85
2023/04/07 10:13:25;;;;;;;6.00;5.50;;;;;;;;;;5092434;28;20929;-85
2023/04/07 10:15:51;;;;;;;6.18;5.68;;;;;;;;;;5093628;28;20397;-85
2023/04/07 10:18:20;;;;;;;6.75;6.15;;;;;;;;;;5081285;28;20400;-86
2023/04/07 10:20:48;;;;;;;6.67;6.17;;;;;;;;;;5088114;28;20368;-85
2023/04/07 10:23:37;;;;;;;6.75;6.15;;;;;;;;;;5073822;28;20387;-85
2023/04/07 10:26:04;;;;;;;6.57;5.97;;;;;;;;;;5069905;28;20391;-85
2023/04/07 10:28:31;;;;;;;6.50;5.90;;;;;;;;;;5083281;28;20392;-85
2023/04/07 10:30:57;;;;;;;6.00;5.40;;;;;;;;;;5077083;28;20875;-85
2023/04/07 10:33:42;;;;;;;6.27;5.70;;;;;;;;;;5080934;28;20380;-85
2023/04/07 10:36:08;;;;;;;6.93;6.33;;;;;;;;;;5077018;28;20407;-85
2023/04/07 10:38:34;;;;;;;7.25;6.65;;;;;;;;;;5074288;28;20776;-85
2023/04/07 10:41:00;;;;;;;5.93;5.53;;;;;;;;;;5076252;28;20375;-85
2023/04/07 10:43:40;;;;;;;6.97;6.47;;;;;;;;;;5079981;28;20370;-85
2023/04/07 10:46:06;;;;;;;6.40;5.90;;;;;;;;;;5079704;28;20418;-86
2023/04/07 10:48:32;;;;;;;6.45;5.95;;;;;;;;;;5078592;28;20374;-85
2023/04/07 10:51:04;;;;;;;6.78;6.10;;;;;;;;;;5089626;28;20382;-85
2023/04/07 10:53:31;;;;;;;6.90;6.30;;;;;;;;;;5074953;28;20477;-85
2023/04/07 10:55:58;;;;;;;5.95;5.45;;;;;;;;;;5073074;28;20403;-85
2023/04/07 10:58:25;;;;;;;5.93;5.43;;;;;;;;;;5073001;28;20412;-85
2023/04/07 11:01:06;;;;;;;5.63;5.13;;;;;;;;;;5073055;28;20375;-83
2023/04/07 11:03:33;;;;;;;6.65;6.05;;;;;;;;;;5072827;28;20372;-84
2023/04/07 11:06:10;;;;;;;6.00;5.50;;;;;;;;;;5081256;28;20378;-84
2023/04/07 11:08:46;;;;;;;5.30;4.90;;;;;;;;;;5094108;28;20396;-84
2023/04/07 11:11:13;;;;;;;4.60;4.30;;;;;;;;;;5073317;28;20415;-84
2023/04/07 11:13:46;;;;;;;5.45;5.03;;;;;;;;;;5081525;28;20872;-83
2023/04/07 11:16:13;;;;;;;4.88;4.47;;;;;;;;;;5075264;28;20472;-84
2023/04/07 11:18:39;;;;;;;4.72;4.32;;;;;;;;;;5072604;28;20411;-84
2023/04/07 11:21:06;;;;;;;4.90;4.45;;;;;;;;;;5072219;28;20373;-84
2023/04/07 11:23:39;;;;;;;5.63;5.13;;;;;;;;;;5072634;28;20737;-84
2023/04/07 11:26:06;;;;;;;5.60;5.10;;;;;;;;;;5072251;28;20458;-84
2023/04/07 11:28:32;;;;;;;5.00;4.60;;;;;;;;;;5072455;28;20383;-85
2023/04/07 11:30:58;;;;;;;4.72;4.38;;;;;;;;;;5072379;28;20383;-84
2023/04/07 11:33:29;;;;;;;4.03;3.73;;;;;;;;;;5073148;28;20380;-85
2023/04/07 11:35:56;;;;;;;4.88;4.47;;;;;;;;;;5066555;28;20411;-84
2023/04/07 11:38:23;;;;;;;4.70;3.80;;;;;;;;;;5068276;28;20406;-84
2023/04/07 11:40:49;;;;;;;4.00;3.70;;;;;;;;;;5078362;28;20400;-84
2023/04/07 11:43:16;;;;;;;4.28;3.90;;;;;;;;;;5070289;28;20438;-84
2023/04/07 11:45:42;;;;;;;3.63;3.33;;;;;;;;;;5068391;28;20384;-84
2023/04/07 11:48:27;;;;;;;4.18;3.75;;;;;;;;;;5071955;28;20873;-85
2023/04/07 11:50:53;;;;;;;3.45;3.15;;;;;;;;;;5072102;28;20380;-85
2023/04/07 11:53:26;;;;;;;3.63;3.30;;;;;;;;;;5071864;28;20394;-85
2023/04/07 11:55:59;;;;;;;3.67;3.38;;;;;;;;;;5071684;28;20400;-84
2023/04/07 11:58:25;;;;;;;3.72;3.42;;;;;;;;;;5068646;28;20375;-86
2023/04/07 12:00:58;;;;;;;3.85;3.50;;;;;;;;;;5070163;28;20459;-85
2023/04/07 12:03:24;;;;;;;3.70;3.40;;;;;;;;;;5072001;28;20864;-85
2023/04/07 12:05:51;;;;;;;3.85;3.22;;;;;;;;;;5071677;28;20475;-85
2023/04/07 12:08:17;;;;;;;3.80;3.50;;;;;;;;;;5071664;28;20895;-85
2023/04/07 12:10:45;;;;;;;3.55;3.25;;;;;;;;;;5071738;28;20864;-85
2023/04/07 12:13:12;;;;;;;3.60;3.30;;;;;;;;;;5071574;28;20740;-84
2023/04/07 12:15:38;;;;;;;3.50;3.20;;;;;;;;;;5070468;28;20531;-85
2023/04/07 12:18:05;;;;;;;3.28;2.95;;;;;;;;;;5069945;28;20534;-85
2023/04/07 12:20:31;;;;;;;3.23;2.93;;;;;;;;;;5068940;28;20383;-85
2023/04/07 12:22:58;;;;;;;3.28;2.97;;;;;;;;;;5062529;28;20861;-85
2023/04/07 12:25:25;;;;;;;3.17;2.88;;;;;;;;;;5071321;28;20432;-84
2023/04/07 12:27:51;;;;;;;3.13;2.92;;;;;;;;;;5070611;28;20380;-85
2023/04/07 12:30:17;;;;;;;3.17;2.97;;;;;;;;;;5071334;28;20395;-87
2023/04/07 12:32:43;;;;;;;3.22;3.03;;;;;;;;;;5077943;28;20382;-87
2023/04/07 12:35:09;;;;;;;3.03;2.83;;;;;;;;;;5085028;28;20423;-84
2023/04/07 12:37:36;;;;;;;3.23;3.00;;;;;;;;;;5077171;28;20374;-84
2023/04/07 12:40:02;;;;;;;2.78;2.58;;;;;;;;;;5079937;28;20374;-85
2023/04/07 12:42:28;;;;;;;2.95;2.75;;;;;;;;;;5082303;28;20393;-84
2023/04/07 12:44:54;;;;;;;2.78;2.58;;;;;;;;;;5081186;28;20392;-84
2023/04/07 12:47:20;;;;;;;3.05;2.40;;;;;;;;;;5084457;28;20462;-84
2023/04/07 12:49:46;;;;;;;2.65;2.45;;;;;;;;;;5091094;28;20381;-83
2023/04/07 12:52:12;;;;;;;2.50;2.30;;;;;;;;;;5091346;28;20378;-86
2023/04/07 12:54:39;;;;;;;2.50;2.30;;;;;;;;;;5091228;28;20382;-85
2023/04/07 12:57:05;;;;;;;2.80;2.50;;;;;;;;;;5089974;28;20895;-84
2023/04/07 12:59:31;;;;;;;2.55;2.33;;;;;;;;;;5091067;28;20429;-84
2023/04/07 13:01:57;;;;;;;2.50;2.30;;;;;;;;;;5076144;28;20470;-84
2023/04/07 13:04:25;;;;;;;2.20;2.10;;;;;;;;;;5090390;28;20377;-85
2023/04/07 13:06:51;;;;;;;2.50;2.30;;;;;;;;;;5089369;28;20378;-85
2023/04/07 13:09:16;;;;;;;2.40;2.20;;;;;;;;;;5090487;28;20431;-85
2023/04/07 13:11:42;;;;;;;2.22;2.05;;;;;;;;;;5091026;28;20950;-85
2023/04/07 13:14:09;;;;;;;2.10;2.00;;;;;;;;;;5090930;28;20383;-83
2023/04/07 13:16:35;;;;;;;3.20;2.10;;;;;;;;;;5090846;28;20497;-84
2023/04/07 13:19:01;;;;;;;2.20;2.10;;;;;;;;;;5090868;28;20560;-84
2023/04/07 13:21:27;;;;;;;2.35;2.00;;;;;;;;;;5091016;28;20374;-83
2023/04/07 13:23:53;;;;;;;2.17;1.97;;;;;;;;;;5085619;28;20378;-82
2023/04/07 13:26:19;;;;;;;2.38;2.25;;;;;;;;;;5089889;28;20413;-83
2023/04/07 13:28:46;;;;;;;2.30;2.15;;;;;;;;;;5090421;28;20390;-83
2023/04/07 13:31:14;;;;;;;3.25;2.30;;;;;;;;;;5090695;28;20477;-82
2023/04/07 13:33:40;;;;;;;2.22;2.00;;;;;;;;;;5089595;28;20902;-81
2023/04/07 13:36:06;;;;;;;1.88;1.77;;;;;;;;;;5086191;28;20441;-83
2023/04/07 13:38:32;;;;;;;1.98;1.88;;;;;;;;;;5070999;28;20418;-85
2023/04/07 13:40:58;;;;;;;1.60;1.50;;;;;;;;;;5077462;28;20415;-84
2023/04/07 13:43:25;;;;;;;1.90;1.80;;;;;;;;;;5080818;28;20381;-84
2023/04/07 13:45:51;;;;;;;1.80;1.50;;;;;;;;;;5084943;28;20382;-83
2023/04/07 13:48:17;;;;;;;1.63;1.50;;;;;;;;;;5083946;28;20788;-83
2023/04/07 13:50:44;;;;;;;1.52;1.42;;;;;;;;;;5078097;28;20374;-82
2023/04/07 13:53:10;;;;;;;1.60;1.50;;;;;;;;;;5094048;28;20409;-83
2023/04/07 13:55:36;;;;;;;1.63;1.52;;;;;;;;;;5094530;28;20463;-83
2023/04/07 13:58:02;;;;;;;1.40;1.30;;;;;;;;;;5080250;28;20370;-83
2023/04/07 14:00:28;;;;;;;1.45;1.27;;;;;;;;;;5094569;28;20374;-84
2023/04/07 14:02:54;;;;;;;1.50;1.40;;;;;;;;;;5093065;28;20850;-81
2023/04/07 14:05:20;;;;;;;1.60;1.25;;;;;;;;;;5080262;28;20378;-82
2023/04/07 14:07:47;;;;;;;1.73;1.40;;;;;;;;;;5094329;28;20374;-83
2023/04/07 14:10:13;;;;;;;1.23;1.13;;;;;;;;;;5092943;28;20901;-83
2023/04/07 14:12:39;;;;;;;1.42;1.33;;;;;;;;;;5094246;28;20382;-84
2023/04/07 14:15:05;;;;;;;1.23;1.13;;;;;;;;;;5093143;28;20406;-82
2023/04/07 14:17:31;;;;;;;1.10;1.00;;;;;;;;;;5093171;28;20455;-84
2023/04/07 14:19:57;;;;;;;1.08;0.98;;;;;;;;;;5093551;28;20930;-84
2023/04/07 14:22:23;;;;;;;1.15;1.00;;;;;;;;;;5093175;28;20423;-83
2023/04/07 14:24:49;;;;;;;1.83;1.73;;;;;;;;;;5075983;28;20742;-84
2023/04/07 14:27:19;;;;;;;1.52;1.42;;;;;;;;;;5089053;28;20375;-83
2023/04/07 14:29:46;;;;;;;2.10;1.90;;;;;;;;;;5080243;28;20422;-83
2023/04/07 14:32:12;;;;;;;2.20;1.77;;;;;;;;;;5093836;28;20401;-83
2023/04/07 14:34:38;;;;;;;2.70;2.07;;;;;;;;;;5093334;28;20397;-84
2023/04/07 14:37:05;;;;;;;2.13;1.92;;;;;;;;;;5083200;28;20462;-83
2023/04/07 14:39:31;;;;;;;2.17;1.98;;;;;;;;;;5081816;28;20435;-84
2023/04/07 14:41:57;;;;;;;2.15;1.88;;;;;;;;;;5085307;28;20464;-83